Time;durP1;ratioP1;P1;durP2;ratioP2;P2;SDS_P1;SDS_P2;PMS_P1;PMS_P2;Temp;Humidity;BMP_temperature;BMP_pressure;BME280_temperature;BME280_humidity;BME280_pressure;Samples;Min_cycle;Max_cycle;Signal;HPM_P1;HPM_P2
2022/12/08 00:00:39;;;;;;;;;5.00;4.00;;;;;19.98;57.27;99912.08;105883;1294;22782;-63
2022/12/08 00:03:09;;;;;;;;;2.00;2.00;;;;;19.99;57.20;99914.23;105902;1285;20004;-66
2022/12/08 00:11:06;;;;;;;;;2.00;2.00;;;;;19.96;57.01;99917.95;105804;1278;22755;-64
2022/12/08 00:13:34;;;;;;;;;2.00;2.00;;;;;19.98;56.94;99923.34;105833;1272;20963;-65
2022/12/08 00:16:01;;;;;;;;;2.00;2.00;;;;;19.97;56.86;99923.31;105913;1283;22356;-64
2022/12/08 00:18:28;;;;;;;;;1.00;1.00;;;;;19.97;56.94;99925.48;105755;1295;153075;-64
2022/12/08 00:20:56;;;;;;;;;2.00;2.00;;;;;19.97;56.75;99926.94;105858;1295;22001;-64
2022/12/08 00:23:23;;;;;;;;;2.00;2.00;;;;;19.97;57.03;99927.31;105827;1295;18437;-64
2022/12/08 00:25:51;;;;;;;;;2.00;2.00;;;;;19.96;56.71;99929.05;105867;1286;20395;-64
2022/12/08 00:28:18;;;;;;;;;2.00;2.00;;;;;19.96;56.61;99928.98;105860;1280;19256;-65
2022/12/08 00:30:45;;;;;;;;;3.50;2.00;;;;;19.96;56.56;99928.73;105759;1280;18498;-65
2022/12/08 00:33:13;;;;;;;;;1.00;1.00;;;;;19.95;56.75;99930.28;105851;1286;22711;-64
2022/12/08 00:35:40;;;;;;;;;1.00;1.00;;;;;19.94;56.59;99932.91;105882;1295;20900;-66
2022/12/08 00:38:08;;;;;;;;;1.00;1.00;;;;;19.94;56.53;99930.95;105831;1279;19106;-65
2022/12/08 00:40:35;;;;;;;;;2.00;2.00;;;;;19.94;56.72;99935.25;105846;1280;18567;-65
2022/12/08 00:43:03;;;;;;;;;2.00;2.00;;;;;19.94;56.40;99942.58;105844;1279;20847;-66
2022/12/08 00:45:30;;;;;;;;;1.00;1.00;;;;;19.93;56.46;99945.79;105830;1295;19505;-66
2022/12/08 00:47:57;;;;;;;;;1.00;1.00;;;;;19.92;56.44;99947.32;105893;1295;18504;-63
2022/12/08 00:50:25;;;;;;;;;1.50;1.50;;;;;19.92;56.52;99951.85;105895;1279;24099;-65
2022/12/08 00:52:52;;;;;;;;;2.00;2.00;;;;;19.92;56.42;99955.64;105823;1280;19756;-64
2022/12/08 00:55:20;;;;;;;;;1.00;1.00;;;;;19.92;56.55;99956.23;105875;1279;18736;-64
2022/12/08 00:57:47;;;;;;;;;2.00;2.00;;;;;19.92;56.40;99958.40;105890;1279;19669;-64
2022/12/08 01:00:15;;;;;;;;;1.00;1.00;;;;;19.92;56.50;99958.23;105854;1272;18417;-63
2022/12/08 01:02:42;;;;;;;;;2.00;2.00;;;;;19.91;56.40;99962.99;105899;1295;19887;-63
2022/12/08 01:05:09;;;;;;;;;1.00;1.00;;;;;19.91;56.46;99962.45;105863;1278;20044;-62
2022/12/08 01:07:37;;;;;;;;;1.00;1.00;;;;;19.90;56.34;99963.61;105851;1295;20510;-65
2022/12/08 01:10:04;;;;;;;;;1.00;1.00;;;;;19.90;56.34;99967.55;105854;1294;20105;-64
2022/12/08 01:12:32;;;;;;;;;1.00;1.00;;;;;19.90;56.50;99968.63;105855;1272;21898;-65
2022/12/08 01:14:59;;;;;;;;;1.00;1.00;;;;;19.90;56.40;99973.73;105935;1279;19508;-65
2022/12/08 01:17:26;;;;;;;;;1.00;1.00;;;;;19.89;56.20;99970.38;105873;1288;20298;-64
2022/12/08 01:19:54;;;;;;;;;1.00;1.00;;;;;19.88;56.26;99969.02;105868;1278;20728;-64
2022/12/08 01:22:21;;;;;;;;;1.00;1.00;;;;;19.89;56.09;99969.13;105874;1295;19580;-63
2022/12/08 01:24:49;;;;;;;;;;;;;;;19.88;56.26;99969.03;105856;1295;25840;-64
2022/12/08 01:27:16;;;;;;;;;1.00;1.00;;;;;19.89;56.34;99968.62;105859;1280;20746;-64
2022/12/08 01:29:44;;;;;;;;;1.00;1.00;;;;;19.89;56.23;99976.61;105949;1295;18394;-63
2022/12/08 01:32:11;;;;;;;;;1.00;1.00;;;;;19.89;56.11;99977.61;105845;1295;21605;-62
2022/12/08 01:34:38;;;;;;;;;1.50;1.50;;;;;19.88;55.95;99984.05;105901;1280;19265;-65
2022/12/08 01:37:06;;;;;;;;;1.00;1.00;;;;;19.87;56.15;99983.83;105874;1272;19489;-65
2022/12/08 01:39:33;;;;;;;;;1.00;1.00;;;;;19.88;56.07;99987.97;105855;1272;19697;-64
2022/12/08 01:42:01;;;;;;;;;1.00;1.00;;;;;19.87;55.97;99987.67;105887;1280;19699;-66
2022/12/08 01:44:28;;;;;;;;;2.00;2.00;;;;;19.86;55.92;99985.02;105881;1295;18524;-64
2022/12/08 01:46:56;;;;;;;;;1.00;1.00;;;;;19.87;56.03;99989.81;105882;1286;18586;-65
2022/12/08 01:49:23;;;;;;;;;1.50;1.00;;;;;19.87;55.77;99989.52;105869;1286;22306;-64
2022/12/08 01:51:50;;;;;;;;;1.00;1.00;;;;;19.88;55.71;99994.50;105849;1294;18385;-64
2022/12/08 01:54:18;;;;;;;;;1.00;1.00;;;;;19.87;55.88;99988.92;105824;1272;20102;-65
2022/12/08 01:56:45;;;;;;;;;2.00;2.00;;;;;19.86;55.87;99990.33;105941;1295;22268;-64
2022/12/08 01:59:13;;;;;;;;;1.00;1.00;;;;;19.87;55.93;99992.42;105886;1278;20593;-64
2022/12/08 02:01:40;;;;;;;;;1.33;1.33;;;;;19.85;55.87;99988.42;105834;1285;23789;-64
2022/12/08 02:04:07;;;;;;;;;1.00;1.00;;;;;19.86;55.82;99990.88;105859;1272;19266;-64
2022/12/08 02:06:35;;;;;;;;;1.00;1.00;;;;;19.86;55.77;99992.34;105897;1272;18401;-64
2022/12/08 02:09:02;;;;;;;;;2.00;2.00;;;;;19.86;55.80;99991.50;105908;1272;18478;-65
2022/12/08 02:11:30;;;;;;;;;1.00;1.00;;;;;19.85;55.80;99991.33;105895;1282;20775;-64
2022/12/08 02:13:57;;;;;;;;;1.00;1.00;;;;;19.86;55.53;99987.81;105786;1272;18283;-64
2022/12/08 02:16:25;;;;;;;;;1.00;1.00;;;;;19.86;55.67;99989.69;105760;1272;19397;-64
2022/12/08 02:18:52;;;;;;;;;1.00;1.00;;;;;19.84;55.71;99997.80;105829;1280;19279;-64
2022/12/08 02:21:19;;;;;;;;;1.00;1.00;;;;;19.84;55.77;100001.64;105750;1288;18717;-64
2022/12/08 02:23:47;;;;;;;;;1.00;1.00;;;;;19.84;55.66;100001.98;105764;1294;20129;-65
2022/12/08 02:26:14;;;;;;;;;1.00;1.00;;;;;19.84;55.53;99997.45;105743;1288;20785;-64
2022/12/08 02:28:42;;;;;;;;;1.00;1.00;;;;;19.83;55.57;100003.60;105813;1288;19541;-64
2022/12/08 02:34:19;;;;;;;;;1.00;1.00;;;;;19.81;55.63;100009.23;105508;1279;19298;-65
2022/12/08 02:36:46;;;;;;;;;1.00;1.00;;;;;19.81;55.46;100010.52;105824;1280;18348;-65
2022/12/08 02:39:14;;;;;;;;;1.00;1.00;;;;;19.82;55.48;100017.81;105697;1294;20748;-65
2022/12/08 02:41:41;;;;;;;;;1.00;1.00;;;;;19.82;55.49;100016.44;105770;1294;19303;-64
2022/12/08 02:44:08;;;;;;;;;1.00;1.00;;;;;19.81;55.66;100023.92;105782;1280;18489;-65
2022/12/08 02:46:36;;;;;;;;;1.00;1.00;;;;;19.81;55.60;100031.41;105762;1288;20019;-65
2022/12/08 02:49:03;;;;;;;;;1.00;1.00;;;;;19.81;55.45;100033.75;105758;1274;20797;-64
2022/12/08 02:51:31;;;;;;;;;1.00;1.00;;;;;19.82;55.32;100040.02;105825;1295;18387;-65
2022/12/08 02:53:58;;;;;;;;;1.00;1.00;;;;;19.81;55.34;100042.11;105746;1287;18559;-65
2022/12/08 02:56:25;;;;;;;;;1.00;1.00;;;;;19.81;55.34;100046.45;105796;1280;19727;-64
2022/12/08 02:58:53;;;;;;;;;1.00;1.00;;;;;19.80;55.33;100046.22;105828;1280;18420;-64
2022/12/08 03:01:20;;;;;;;;;2.00;2.00;;;;;19.80;55.42;100052.00;105829;1286;18488;-65
2022/12/08 03:03:47;;;;;;;;;1.00;1.00;;;;;19.80;55.44;100052.91;105863;1280;19123;-65
2022/12/08 03:06:15;;;;;;;;;1.00;1.00;;;;;19.81;55.17;100051.52;105832;1295;19643;-65
2022/12/08 03:08:42;;;;;;;;;1.00;1.00;;;;;19.80;55.39;100054.00;105913;1294;18466;-64
2022/12/08 03:11:09;;;;;;;;;1.00;1.00;;;;;19.79;55.31;100060.76;105864;1272;20890;-64
2022/12/08 03:13:37;;;;;;;;;1.00;1.00;;;;;19.79;55.03;100055.16;105880;1279;18518;-64
2022/12/08 03:16:04;;;;;;;;;1.00;1.00;;;;;19.78;55.35;100052.94;105874;1279;18572;-64
2022/12/08 03:18:31;;;;;;;;;1.00;1.00;;;;;19.79;55.30;100049.73;105893;1280;19239;-64
2022/12/08 03:20:59;;;;;;;;;1.00;1.00;;;;;19.79;55.21;100053.77;105883;1272;20277;-64
2022/12/08 03:23:26;;;;;;;;;1.00;1.00;;;;;19.79;55.22;100055.70;105879;1289;18532;-64
2022/12/08 03:25:53;;;;;;;;;1.00;1.00;;;;;19.78;55.24;100056.94;105857;1294;22194;-64
2022/12/08 03:28:21;;;;;;;;;1.00;1.00;;;;;19.78;54.97;100062.92;105833;1278;19582;-63
2022/12/08 03:30:48;;;;;;;;;1.00;1.00;;;;;19.78;55.12;100064.27;105849;1279;19893;-64
2022/12/08 03:33:15;;;;;;;;;1.00;1.00;;;;;19.77;55.08;100064.21;105888;1288;22284;-64
2022/12/08 03:35:43;;;;;;;;;1.00;1.00;;;;;19.78;55.16;100065.17;105789;1279;18504;-64
2022/12/08 03:38:10;;;;;;;;;1.00;1.00;;;;;19.77;55.13;100065.21;105728;1295;18640;-64
2022/12/08 03:40:37;;;;;;;;;1.00;1.00;;;;;19.76;55.02;100063.20;105754;1289;19330;-65
2022/12/08 03:43:05;;;;;;;;;1.00;1.00;;;;;19.77;55.03;100069.02;105766;1273;22932;-65
2022/12/08 03:45:32;;;;;;;;;1.00;1.00;;;;;19.77;55.12;100072.16;105722;1279;19895;-64
2022/12/08 03:47:59;;;;;;;;;1.00;1.00;;;;;19.76;54.96;100077.64;105709;1286;21523;-65
2022/12/08 03:50:27;;;;;;;;;1.00;1.00;;;;;19.76;55.12;100079.02;105731;1278;19610;-63
2022/12/08 03:52:54;;;;;;;;;1.00;1.00;;;;;19.75;54.90;100076.33;105764;1279;18507;-64
2022/12/08 03:55:21;;;;;;;;;1.00;1.00;;;;;19.75;55.01;100076.16;105787;1272;22869;-65
2022/12/08 03:57:49;;;;;;;;;1.00;1.00;;;;;19.76;54.75;100078.84;105781;1278;18794;-63
2022/12/08 04:00:16;;;;;;;;;1.00;1.00;;;;;19.77;54.94;100082.37;105712;1294;21261;-65
2022/12/08 04:02:44;;;;;;;;;1.00;1.00;;;;;19.76;54.95;100085.66;105798;1295;19247;-65
2022/12/08 04:05:11;;;;;;;;;1.00;1.00;;;;;19.76;54.70;100086.80;105769;1294;18383;-66
2022/12/08 04:07:38;;;;;;;;;1.00;1.00;;;;;19.76;54.89;100087.37;105787;1285;18693;-65
2022/12/08 04:10:06;;;;;;;;;1.00;1.00;;;;;19.74;54.86;100093.45;105846;1294;19251;-65
2022/12/08 04:12:33;;;;;;;;;1.00;1.00;;;;;19.75;54.91;100092.52;105740;1280;19896;-65
2022/12/08 04:15:00;;;;;;;;;2.00;1.00;;;;;19.74;54.74;100094.55;105787;1280;20699;-64
2022/12/08 04:17:28;;;;;;;;;1.00;1.00;;;;;19.75;54.82;100098.98;105788;1288;19804;-65
2022/12/08 04:19:55;;;;;;;;;1.00;1.00;;;;;19.74;54.92;100097.27;105765;1272;18373;-64
2022/12/08 04:22:22;;;;;;;;;1.00;1.00;;;;;19.75;54.86;100097.73;105748;1295;20032;-64
2022/12/08 04:24:49;;;;;;;;;1.00;1.00;;;;;19.76;54.68;100095.90;105719;1280;19429;-64
2022/12/08 04:27:17;;;;;;;;;2.00;1.00;;;;;19.73;54.97;100096.48;105720;1272;18542;-65
2022/12/08 04:29:44;;;;;;;;;1.00;1.00;;;;;19.73;54.64;100098.11;105917;1295;20033;-64
2022/12/08 04:32:11;;;;;;;;;1.00;1.00;;;;;19.74;54.74;100102.91;105768;1294;22661;-65
2022/12/08 04:34:39;;;;;;;;;4.00;1.00;;;;;19.74;54.76;100099.67;105828;1280;19539;-65
2022/12/08 04:37:06;;;;;;;;;1.00;1.00;;;;;19.74;54.58;100105.84;105761;1280;18693;-65
2022/12/08 04:39:33;;;;;;;;;1.00;1.00;;;;;19.74;54.82;100104.97;105714;1280;19273;-65
2022/12/08 04:42:01;;;;;;;;;1.00;1.00;;;;;19.74;54.67;100107.69;105749;1286;18427;-66
2022/12/08 04:44:28;;;;;;;;;1.00;1.00;;;;;19.72;54.64;100108.17;105795;1276;18348;-63
2022/12/08 04:46:55;;;;;;;;;1.00;1.00;;;;;19.73;54.82;100108.63;105768;1295;20718;-65
2022/12/08 04:49:23;;;;;;;;;1.00;1.00;;;;;19.73;54.66;100106.98;105696;1291;19634;-64
2022/12/08 04:51:50;;;;;;;;;1.00;1.00;;;;;19.73;54.42;100107.86;105773;1279;18710;-64
2022/12/08 04:54:17;;;;;;;;;1.00;1.00;;;;;19.74;54.36;100110.58;105725;1280;19254;-65
2022/12/08 04:56:45;;;;;;;;;1.00;1.00;;;;;19.74;54.63;100110.14;105800;1278;18514;-65
2022/12/08 04:59:12;;;;;;;;;1.00;1.00;;;;;19.72;54.29;100105.27;105760;1288;20005;-64
2022/12/08 05:01:39;;;;;;;;;1.00;1.00;;;;;19.72;54.35;100104.80;105773;1294;19278;-63
2022/12/08 05:04:06;;;;;;;;;1.00;1.00;;;;;19.72;54.04;100100.31;105775;1280;18589;-63
2022/12/08 05:06:34;;;;;;;;;1.00;1.00;;;;;19.73;54.19;100100.75;105743;1293;19913;-65
2022/12/08 05:09:01;;;;;;;;;1.00;1.00;;;;;19.72;54.10;100100.06;105733;1280;19292;-66
2022/12/08 05:11:28;;;;;;;;;1.00;1.00;;;;;19.72;53.97;100103.48;105898;1272;18353;-64
2022/12/08 05:13:56;;;;;;;;;1.00;1.00;;;;;19.72;54.01;100098.98;105845;1279;20017;-64
2022/12/08 05:16:23;;;;;;;;;1.00;1.00;;;;;19.71;54.03;100098.39;105765;1294;19336;-66
2022/12/08 05:18:50;;;;;;;;;1.00;1.00;;;;;19.71;53.89;100097.80;105751;1301;22748;-65
2022/12/08 05:21:18;;;;;;;;;1.00;1.00;;;;;19.70;53.99;100097.95;105741;1289;18463;-65
2022/12/08 05:23:45;;;;;;;;;1.00;1.00;;;;;19.71;54.00;100098.63;105804;1294;19252;-65
2022/12/08 05:26:12;;;;;;;;;1.00;1.00;;;;;19.71;53.98;100100.46;105758;1278;21851;-65
2022/12/08 05:28:40;;;;;;;;;1.00;1.00;;;;;19.71;53.99;100101.81;105773;1272;18497;-65
2022/12/08 05:31:07;;;;;;;;;1.00;1.00;;;;;19.70;53.70;100102.81;105772;1286;21777;-62
2022/12/08 05:33:34;;;;;;;;;1.00;1.00;;;;;19.71;53.97;100108.71;105725;1280;18613;-65
2022/12/08 05:36:02;;;;;;;;;1.00;1.00;;;;;19.70;53.73;100112.44;105792;1294;19948;-65
2022/12/08 05:38:29;;;;;;;;;1.00;1.00;;;;;19.71;53.82;100106.25;105770;1295;19441;-64
2022/12/08 05:40:56;;;;;;;;;1.50;1.00;;;;;19.69;53.68;100107.31;105711;1288;19550;-64
2022/12/08 05:43:24;;;;;;;;;1.00;1.00;;;;;19.69;53.69;100107.39;105739;1278;19984;-64
2022/12/08 05:45:51;;;;;;;;;1.00;1.00;;;;;19.69;53.67;100109.90;105723;1279;22985;-64
2022/12/08 05:48:18;;;;;;;;;1.00;1.00;;;;;19.69;53.85;100106.09;105707;1272;18364;-65
2022/12/08 05:50:46;;;;;;;;;1.00;1.00;;;;;19.69;53.53;100116.84;105802;1294;19912;-64
2022/12/08 05:53:13;;;;;;;;;1.00;1.00;;;;;19.69;53.59;100116.30;105783;1294;19267;-63
2022/12/08 05:55:40;;;;;;;;;1.00;1.00;;;;;19.68;53.65;100118.16;105803;1280;19719;-65
2022/12/08 05:58:07;;;;;;;;;1.00;1.00;;;;;19.67;53.76;100118.77;105765;1288;21357;-65
2022/12/08 06:00:35;;;;;;;;;1.00;1.00;;;;;19.68;53.68;100124.90;105774;1294;22356;-65
2022/12/08 06:03:02;;;;;;;;;1.00;1.00;;;;;19.67;53.53;100129.72;105762;1294;18559;-66
2022/12/08 06:05:29;;;;;;;;;1.00;1.00;;;;;19.67;53.62;100130.56;105751;1287;22885;-65
2022/12/08 06:07:57;;;;;;;;;1.00;1.00;;;;;19.68;53.74;100131.95;105803;1280;20721;-65
2022/12/08 06:10:24;;;;;;;;;1.00;1.00;;;;;19.67;53.83;100132.98;105825;1280;18379;-65
2022/12/08 06:12:51;;;;;;;;;1.00;1.00;;;;;19.67;53.66;100132.06;105773;1272;20043;-66
2022/12/08 06:15:19;;;;;;;;;1.00;1.00;;;;;19.68;53.59;100137.80;105745;1272;22971;-65
2022/12/08 06:17:46;;;;;;;;;2.00;2.00;;;;;19.67;53.72;100134.58;105783;1294;18373;-65
2022/12/08 06:20:14;;;;;;;;;1.00;1.00;;;;;19.67;53.73;100138.55;105778;1288;23475;-65
2022/12/08 06:22:41;;;;;;;;;2.00;1.50;;;;;19.67;53.67;100140.55;105743;1294;19273;-62
2022/12/08 06:25:08;;;;;;;;;1.00;1.00;;;;;19.65;53.73;100142.38;105736;1279;18389;-62
2022/12/08 06:27:36;;;;;;;;;2.00;1.00;;;;;19.67;53.55;100145.08;105706;1272;22474;-63
2022/12/08 06:30:03;;;;;;;;;1.00;1.00;;;;;19.70;53.63;100144.41;105737;1278;21872;-65
2022/12/08 06:32:30;;;;;;;;;2.00;2.00;;;;;19.73;53.89;100146.94;105911;1280;18373;-64
2022/12/08 06:34:58;;;;;;;;;2.00;1.00;;;;;19.75;54.00;100150.99;105757;1272;19975;-66
2022/12/08 06:37:25;;;;;;;;;1.50;1.00;;;;;19.73;54.19;100150.54;105764;1278;20759;-65
2022/12/08 06:39:52;;;;;;;;;1.00;1.00;;;;;19.72;54.16;100153.90;105734;1279;19601;-65
2022/12/08 06:45:04;;;;;;;;;1.00;1.00;;;;;19.72;54.43;100159.77;105818;1293;20602;-64
2022/12/08 06:47:32;;;;;;;;;2.00;2.00;;;;;19.74;54.17;100156.95;105807;1279;18386;-66
2022/12/08 06:49:59;;;;;;;;;1.00;1.00;;;;;19.76;54.38;100159.24;105812;1272;20232;-66
2022/12/08 06:52:26;;;;;;;;;2.00;1.00;;;;;19.78;54.58;100158.52;105829;1293;19435;-65
2022/12/08 06:54:54;;;;;;;;;1.00;1.00;;;;;19.79;54.88;100162.84;105713;1280;18569;-64
2022/12/08 06:57:23;;;;;;;;;2.00;2.00;;;;;19.80;54.98;100157.16;105745;1272;22712;-64
2022/12/08 06:59:50;;;;;;;;;1.00;1.00;;;;;19.80;54.73;100162.44;105748;1279;19836;-64
2022/12/08 07:02:17;;;;;;;;;2.00;2.00;;;;;19.78;54.98;100166.30;105757;1273;19650;-63
2022/12/08 07:04:45;;;;;;;;;2.00;2.00;;;;;19.76;54.95;100165.30;105713;1294;20449;-64
2022/12/08 07:07:13;;;;;;;;;1.00;1.00;;;;;19.74;54.92;100163.27;105811;1272;19237;-63
2022/12/08 07:09:41;;;;;;;;;2.00;2.00;;;;;19.72;55.09;100167.33;105868;1272;22628;-63
2022/12/08 07:12:08;;;;;;;;;1.00;1.00;;;;;19.72;54.80;100170.92;105696;1295;18490;-65
2022/12/08 07:14:35;;;;;;;;;1.00;1.00;;;;;19.73;54.61;100169.73;105757;1272;20642;-65
2022/12/08 07:17:03;;;;;;;;;2.00;2.00;;;;;19.74;54.62;100169.84;105652;1279;18597;-65
2022/12/08 07:19:30;;;;;;;;;1.00;1.00;;;;;19.71;54.91;100171.63;105634;1279;18695;-65
2022/12/08 07:21:57;;;;;;;;;2.00;2.00;;;;;19.72;54.89;100175.61;105795;1288;19264;-65
2022/12/08 07:24:25;;;;;;;;;1.00;1.00;;;;;19.72;54.59;100174.65;105597;1295;18537;-65
2022/12/08 07:26:52;;;;;;;;;2.00;1.00;;;;;19.72;54.57;100175.45;105866;1298;18500;-64
2022/12/08 07:29:19;;;;;;;;;4.00;2.00;;;;;19.70;54.78;100177.67;105739;1272;19290;-65
2022/12/08 07:31:47;;;;;;;;;2.00;2.00;;;;;19.69;54.85;100173.65;105720;1272;23878;-64
2022/12/08 07:34:14;;;;;;;;;4.00;2.00;;;;;19.71;54.59;100181.04;105723;1296;20875;-63
2022/12/08 07:36:42;;;;;;;;;2.00;2.00;;;;;19.73;54.67;100179.92;105731;1279;19560;-65
2022/12/08 07:39:09;;;;;;;;;1.00;1.00;;;;;19.73;54.56;100180.06;105714;1295;18754;-65
2022/12/08 07:41:36;;;;;;;;;3.00;3.00;;;;;19.73;54.79;100182.79;105741;1294;19967;-64
2022/12/08 07:44:04;;;;;;;;;1.00;1.00;;;;;19.72;54.81;100182.59;105709;1280;19373;-65
2022/12/08 07:46:31;;;;;;;;;2.00;1.50;;;;;19.71;54.77;100186.84;105780;1272;18407;-63
2022/12/08 07:48:58;;;;;;;;;2.00;2.00;;;;;19.70;54.74;100185.71;105756;1278;18502;-65
2022/12/08 07:51:26;;;;;;;;;1.00;1.00;;;;;19.70;54.74;100183.70;105703;1278;20786;-65
2022/12/08 07:53:53;;;;;;;;;2.00;2.00;;;;;19.69;54.96;100178.71;105832;1295;18337;-65
2022/12/08 07:56:20;;;;;;;;;5.00;4.00;;;;;19.68;54.63;100178.48;105833;1280;18537;-65
2022/12/08 07:58:48;;;;;;;;;1.00;1.00;;;;;19.68;54.67;100177.93;105727;1273;19169;-65
2022/12/08 08:01:15;;;;;;;;;1.00;1.00;;;;;19.68;54.70;100173.76;105818;1280;18363;-64
2022/12/08 08:03:42;;;;;;;;;4.00;2.00;;;;;19.70;54.68;100179.73;105791;1294;18546;-63
2022/12/08 08:06:10;;;;;;;;;2.00;2.00;;;;;19.71;54.67;100182.13;105760;1295;20987;-65
2022/12/08 08:08:37;;;;;;;;;1.33;1.00;;;;;19.69;54.52;100180.77;105763;1279;20317;-64
2022/12/08 08:11:04;;;;;;;;;2.00;2.00;;;;;19.68;54.69;100180.12;105716;1272;19959;-64
2022/12/08 08:13:32;;;;;;;;;1.00;1.00;;;;;19.68;54.98;100181.61;105797;1280;19308;-64
2022/12/08 08:15:59;;;;;;;;;2.00;2.00;;;;;19.70;55.01;100179.94;105703;1273;18276;-65
2022/12/08 08:18:26;;;;;;;;;2.00;2.00;;;;;19.69;54.79;100180.73;105748;1294;18571;-64
2022/12/08 08:20:54;;;;;;;;;2.00;2.00;;;;;19.69;54.91;100181.43;105784;1294;20801;-65
2022/12/08 08:23:21;;;;;;;;;1.00;1.00;;;;;19.70;55.07;100177.14;105784;1272;20998;-66
2022/12/08 08:25:48;;;;;;;;;2.00;2.00;;;;;19.73;55.09;100177.77;105651;1294;18906;-65
2022/12/08 08:28:16;;;;;;;;;2.00;2.00;;;;;19.76;55.09;100173.83;105763;1273;20628;-64
2022/12/08 08:30:43;;;;;;;;;2.00;2.00;;;;;19.78;55.09;100174.11;105696;1272;18548;-65
2022/12/08 08:33:10;;;;;;;;;2.00;2.00;;;;;19.79;54.99;100177.60;105749;1272;21416;-65
2022/12/08 08:35:38;;;;;;;;;1.00;1.00;;;;;19.78;54.88;100178.22;105731;1295;20722;-66
2022/12/08 08:38:05;;;;;;;;;2.00;2.00;;;;;19.76;55.00;100173.59;105730;1279;19413;-65
2022/12/08 08:40:33;;;;;;;;;2.00;2.00;;;;;19.75;55.11;100172.95;105734;1272;19979;-66
2022/12/08 08:43:00;;;;;;;;;4.00;2.00;;;;;19.75;55.32;100171.53;105728;1294;19340;-65
2022/12/08 08:45:27;;;;;;;;;4.00;2.00;;;;;19.73;55.47;100173.33;105747;1279;19550;-65
2022/12/08 08:47:55;;;;;;;;;1.00;1.00;;;;;19.73;55.18;100173.33;105853;1295;22102;-66
2022/12/08 08:50:22;;;;;;;;;4.00;4.00;;;;;19.72;55.31;100175.15;105735;1280;20716;-62
2022/12/08 08:52:49;;;;;;;;;4.00;4.00;;;;;19.75;55.14;100171.64;105657;1279;18614;-63
2022/12/08 08:55:17;;;;;;;;;7.00;7.00;;;;;19.81;55.47;100171.50;105681;1286;20021;-60
2022/12/08 08:57:44;;;;;;;;;;;;;;;19.84;55.51;100172.05;105666;1273;19291;-65
2022/12/08 09:00:11;;;;;;;;;70.00;52.00;;;;;19.87;55.19;100173.35;105744;1278;19817;-65
2022/12/08 09:02:39;;;;;;;;;99.00;71.00;;;;;19.86;55.13;100178.00;105709;1273;20098;-65
2022/12/08 09:05:06;;;;;;;;;111.00;84.00;;;;;19.87;55.19;100174.61;105631;1272;20746;-64
2022/12/08 09:07:34;;;;;;;;;107.50;76.00;;;;;19.88;55.11;100173.51;105655;1280;19945;-64
2022/12/08 09:10:01;;;;;;;;;115.00;89.00;;;;;19.89;54.91;100171.83;105763;1272;18635;-62
2022/12/08 09:12:29;;;;;;;;;115.00;92.00;;;;;19.93;55.28;100169.71;105736;1280;19171;-62
2022/12/08 09:14:56;;;;;;;;;111.00;79.00;;;;;19.94;55.49;100174.30;105801;1291;20401;-62
2022/12/08 09:17:23;;;;;;;;;103.00;74.50;;;;;19.96;55.66;100167.88;105754;1295;18618;-62
2022/12/08 09:19:51;;;;;;;;;106.50;73.50;;;;;19.97;56.00;100169.70;105649;1280;20880;-61
2022/12/08 09:22:18;;;;;;;;;100.00;70.00;;;;;19.95;55.93;100169.05;105711;1294;18860;-62
2022/12/08 09:24:45;;;;;;;;;92.00;69.50;;;;;19.95;55.83;100162.22;105726;1278;18713;-63
2022/12/08 09:27:13;;;;;;;;;98.00;69.00;;;;;19.95;56.05;100166.95;105776;1280;22070;-63
2022/12/08 09:29:40;;;;;;;;;95.00;67.00;;;;;19.94;56.18;100158.52;105753;1295;20002;-61
2022/12/08 09:32:07;;;;;;;;;88.50;64.00;;;;;19.92;56.08;100157.88;105691;1280;23239;-61
2022/12/08 09:34:35;;;;;;;;;83.00;61.50;;;;;19.90;56.00;100152.11;105781;1279;20795;-60
2022/12/08 09:37:02;;;;;;;;;81.50;59.00;;;;;19.90;56.10;100150.13;105766;1294;18523;-60
2022/12/08 09:39:29;;;;;;;;;72.00;55.00;;;;;19.89;55.90;100145.14;105683;1286;22667;-61
2022/12/08 09:41:56;;;;;;;;;81.00;59.00;;;;;19.89;56.09;100140.66;105836;1273;21177;-63
2022/12/08 09:44:24;;;;;;;;;75.00;54.00;;;;;19.90;56.12;100137.95;105844;1280;20857;-60
2022/12/08 09:46:51;;;;;;;;;72.00;54.00;;;;;19.93;56.18;100135.26;105875;1272;18717;-62
2022/12/08 09:49:18;;;;;;;;;78.50;55.50;;;;;19.94;56.21;100131.66;105855;1280;20918;-61
2022/12/08 09:51:46;;;;;;;;;69.00;50.00;;;;;19.95;56.32;100129.67;105752;1280;22618;-62
2022/12/08 09:54:13;;;;;;;;;64.00;46.00;;;;;19.96;56.32;100131.27;105756;1273;20011;-61
2022/12/08 09:56:40;;;;;;;;;148.50;122.00;;;;;19.96;56.14;100125.59;105799;1280;19306;-62
2022/12/08 09:59:08;;;;;;;;;180.00;147.00;;;;;19.94;57.03;100124.43;105821;1272;18446;-62
2022/12/08 10:01:37;;;;;;;;;133.33;108.00;;;;;19.94;57.52;100122.45;105798;1286;22039;-63
2022/12/08 10:04:04;;;;;;;;;101.00;79.00;;;;;19.95;57.53;100116.69;105806;1294;19238;-60
2022/12/08 10:06:31;;;;;;;;;97.00;75.00;;;;;19.95;57.50;100119.88;105801;1272;21744;-62
2022/12/08 10:08:59;;;;;;;;;94.50;70.50;;;;;19.96;57.37;100114.23;105848;1280;20145;-62
2022/12/08 10:11:26;;;;;;;;;79.50;63.00;;;;;19.97;57.64;100109.77;105735;1272;19298;-61
2022/12/08 10:13:54;;;;;;;;;;;;;;;19.95;57.81;100107.83;105736;1272;20029;-62
2022/12/08 10:16:21;;;;;;;;;;;;;;;19.95;57.53;100101.46;105728;1279;18213;-61
2022/12/08 10:18:49;;;;;;;;;54.50;46.50;;;;;19.94;57.63;100099.40;105865;1280;19297;-63
2022/12/08 10:21:17;;;;;;;;;54.00;46.00;;;;;19.95;57.79;100093.64;105697;1280;18723;-62
2022/12/08 10:23:44;;;;;;;;;45.00;38.00;;;;;19.95;57.61;100095.81;105718;1288;20159;-63
2022/12/08 10:26:11;;;;;;;;;43.00;30.00;;;;;19.94;57.70;100088.90;105734;1272;22141;-63
2022/12/08 10:28:39;;;;;;;;;35.00;31.50;;;;;19.92;57.60;100085.66;105776;1280;19996;-63
2022/12/08 10:31:06;;;;;;;;;34.00;28.00;;;;;19.91;57.95;100074.50;105787;1280;20108;-63
2022/12/08 10:33:33;;;;;;;;;27.00;27.00;;;;;19.92;57.99;100069.20;105716;1292;20875;-62
2022/12/08 10:36:03;;;;;;;;;26.50;23.00;;;;;19.91;57.75;100067.27;105740;1294;20004;-64
2022/12/08 10:38:30;;;;;;;;;30.00;21.00;;;;;19.92;57.72;100062.30;105820;1280;20081;-63
2022/12/08 10:40:58;;;;;;;;;27.00;24.00;;;;;19.91;57.74;100059.30;105682;1280;19301;-62
2022/12/08 10:43:25;;;;;;;;;23.50;20.00;;;;;19.90;57.54;100054.23;105767;1295;18470;-64
2022/12/08 10:45:53;;;;;;;;;24.50;19.00;;;;;19.88;57.59;100054.63;105709;1286;19969;-62
2022/12/08 10:48:20;;;;;;;;;20.00;15.00;;;;;19.87;57.51;100051.38;105841;1294;20786;-60
2022/12/08 10:50:47;;;;;;;;;23.00;18.00;;;;;19.85;57.57;100044.86;105742;1277;23673;-63
2022/12/08 10:53:15;;;;;;;;;16.00;15.00;;;;;19.86;57.09;100040.98;105820;1272;18554;-63
2022/12/08 10:55:43;;;;;;;;;15.00;14.00;;;;;19.84;57.28;100040.42;105828;1273;22323;-62
2022/12/08 10:58:10;;;;;;;;;15.00;14.00;;;;;19.84;57.08;100040.13;105712;1280;18517;-60
2022/12/08 11:00:37;;;;;;;;;20.00;17.00;;;;;19.83;57.09;100037.81;105706;1272;19792;-59
2022/12/08 11:03:04;;;;;;;;;13.00;12.00;;;;;19.83;57.01;100031.80;105781;1279;19275;-64
2022/12/08 11:05:32;;;;;;;;;15.00;14.00;;;;;19.82;56.78;100032.33;105792;1280;18544;-62
2022/12/08 11:07:59;;;;;;;;;12.00;12.00;;;;;19.82;56.82;100030.02;105803;1279;20125;-64
2022/12/08 11:10:26;;;;;;;;;13.00;13.00;;;;;19.81;56.73;100029.93;105822;1294;20732;-63
2022/12/08 11:12:56;;;;;;;;;15.00;12.00;;;;;19.81;56.62;100027.39;105746;1272;22448;-63
2022/12/08 11:15:24;;;;;;;;;14.50;11.00;;;;;19.81;56.69;100024.55;105732;1279;18794;-63
2022/12/08 11:17:51;;;;;;;;;14.00;13.50;;;;;19.80;56.59;100025.65;105809;1289;19961;-63
2022/12/08 11:20:18;;;;;;;;;17.00;12.00;;;;;19.80;56.65;100026.40;105747;1279;19924;-62
2022/12/08 11:22:46;;;;;;;;;11.00;10.00;;;;;19.80;56.51;100026.84;105743;1294;20532;-62
2022/12/08 11:25:13;;;;;;;;;8.00;8.00;;;;;19.79;56.47;100025.15;105782;1279;23165;-63
2022/12/08 11:27:40;;;;;;;;;11.00;10.00;;;;;19.78;56.51;100024.27;105835;1294;19994;-60